createdAt,value
2024-01-30T00:00:27.074Z,13.13
2024-01-30T00:02:57.456Z,11.00
2024-01-30T00:05:30.345Z,10.37
2024-01-30T00:08:00.756Z,10.90
2024-01-30T00:10:31.067Z,11.00
2024-01-30T00:13:01.508Z,12.50
2024-01-30T00:15:34.546Z,13.07
2024-01-30T00:18:09.231Z,9.63
2024-01-30T00:20:42.106Z,12.80
2024-01-30T00:23:12.562Z,12.30
2024-01-30T00:25:42.778Z,10.10
2024-01-30T00:28:16.172Z,9.63
2024-01-30T00:30:55.583Z,11.57
2024-01-30T00:33:26.048Z,9.93
2024-01-30T00:35:58.957Z,10.37
2024-01-30T00:38:29.302Z,9.87
2024-01-30T00:41:03.137Z,12.17
2024-01-30T00:43:36.211Z,10.13
2024-01-30T00:46:09.430Z,11.33
2024-01-30T00:48:42.749Z,9.83
2024-01-30T00:51:16.262Z,9.73
2024-01-30T00:53:46.536Z,10.70
2024-01-30T00:56:19.605Z,11.50
2024-01-30T00:58:49.990Z,12.63
2024-01-30T01:01:22.999Z,10.40
2024-01-30T01:03:53.420Z,11.10
2024-01-30T01:06:26.405Z,10.57
2024-01-30T01:08:56.715Z,13.27
2024-01-30T01:11:36.012Z,11.00
2024-01-30T01:14:06.232Z,12.20
2024-01-30T01:16:38.715Z,13.13
2024-01-30T01:19:09.048Z,10.80
2024-01-30T01:21:41.991Z,12.20
2024-01-30T01:24:15.303Z,9.53
2024-01-30T01:26:45.599Z,10.50
2024-01-30T01:29:18.589Z,9.90
2024-01-30T01:31:48.945Z,10.97
2024-01-30T01:34:20.102Z,10.97
2024-01-30T01:36:56.398Z,10.90
2024-01-30T01:39:27.305Z,8.70
2024-01-30T01:41:57.602Z,9.83
2024-01-30T01:44:27.902Z,11.23
2024-01-30T01:47:01.742Z,10.47
2024-01-30T01:49:45.488Z,10.63
2024-01-30T01:52:18.607Z,8.37
2024-01-30T01:54:52.206Z,10.63
2024-01-30T01:57:25.806Z,10.60
2024-01-30T01:59:56.622Z,10.73
2024-01-30T02:02:32.614Z,11.20
2024-01-30T02:05:18.512Z,9.27
2024-01-30T02:07:51.632Z,8.73
2024-01-30T02:10:27.660Z,9.20
2024-01-30T02:12:57.926Z,8.33
2024-01-30T02:15:28.585Z,8.70
2024-01-30T02:17:58.919Z,10.60
2024-01-30T02:20:33.836Z,8.33
2024-01-30T02:23:10.991Z,8.23
2024-01-30T02:25:45.708Z,8.40
2024-01-30T02:28:17.099Z,8.50
2024-01-30T02:30:50.122Z,8.30
2024-01-30T02:33:26.321Z,10.23
2024-01-30T02:35:56.618Z,8.43
2024-01-30T02:38:32.680Z,11.20
2024-01-30T02:41:02.883Z,9.10
2024-01-30T02:43:33.186Z,9.87
2024-01-30T02:46:03.642Z,8.13
2024-01-30T02:48:33.935Z,8.93
2024-01-30T02:51:01.782Z,8.37
2024-01-30T02:53:44.401Z,11.33
2024-01-30T02:56:14.864Z,9.05
2024-01-30T02:58:57.063Z,10.33
2024-01-30T03:01:28.094Z,7.47
2024-01-30T03:03:58.582Z,8.40
2024-01-30T03:06:34.297Z,8.60
2024-01-30T03:09:08.528Z,9.93
2024-01-30T03:11:38.765Z,9.87
2024-01-30T03:14:09.434Z,8.20
2024-01-30T03:16:39.690Z,9.03
2024-01-30T03:19:11.711Z,8.50
2024-01-30T03:21:45.084Z,9.30
2024-01-30T03:24:20.075Z,9.43
2024-01-30T03:26:52.952Z,8.87
2024-01-30T03:29:23.328Z,9.60
2024-01-30T03:31:53.717Z,8.33
2024-01-30T03:34:24.071Z,9.67
2024-01-30T03:36:59.849Z,8.43
2024-01-30T03:39:32.761Z,9.20
2024-01-30T03:42:06.308Z,10.57
2024-01-30T03:44:36.620Z,9.60
2024-01-30T03:47:07.363Z,10.20
2024-01-30T03:49:37.724Z,11.27
2024-01-30T03:52:08.483Z,10.60
2024-01-30T03:54:41.476Z,9.30
2024-01-30T03:57:14.475Z,9.60
2024-01-30T03:59:50.847Z,11.17
2024-01-30T04:02:23.919Z,11.33
2024-01-30T04:04:59.962Z,9.07
2024-01-30T04:07:30.498Z,11.03
2024-01-30T04:10:08.536Z,9.30
2024-01-30T04:12:38.837Z,11.10
2024-01-30T04:15:10.090Z,10.30
2024-01-30T04:17:40.906Z,9.73
2024-01-30T04:20:19.604Z,12.70
2024-01-30T04:22:50.959Z,10.43
2024-01-30T04:25:32.868Z,11.57
2024-01-30T04:28:03.230Z,10.93
2024-01-30T04:30:33.501Z,8.50
2024-01-30T04:33:04.048Z,10.93
2024-01-30T04:35:39.788Z,9.53
2024-01-30T04:38:15.802Z,9.80
2024-01-30T04:40:48.688Z,9.50
2024-01-30T04:43:25.271Z,9.20
2024-01-30T04:45:55.554Z,8.67
2024-01-30T04:48:33.259Z,9.70
2024-01-30T04:51:04.276Z,11.77
2024-01-30T04:53:34.997Z,10.33
2024-01-30T04:56:12.063Z,10.03
2024-01-30T04:58:45.170Z,8.40
2024-01-30T05:01:29.530Z,9.63
2024-01-30T05:03:59.939Z,9.90
2024-01-30T05:06:30.495Z,9.57
2024-01-30T05:09:06.663Z,9.70
2024-01-30T05:11:41.790Z,9.90
2024-01-30T05:14:13.223Z,11.20
2024-01-30T05:16:44.194Z,9.63
2024-01-30T05:19:21.781Z,8.80
2024-01-30T05:21:54.925Z,10.50
2024-01-30T05:24:30.834Z,9.33
2024-01-30T05:27:06.147Z,10.77
2024-01-30T05:29:36.411Z,10.73
2024-01-30T05:32:07.468Z,11.20
2024-01-30T05:34:37.873Z,12.20
2024-01-30T05:37:08.856Z,13.23
2024-01-30T05:39:39.136Z,11.37
2024-01-30T05:42:11.931Z,12.53
2024-01-30T05:44:47.947Z,9.83
2024-01-30T05:47:18.237Z,12.70
2024-01-30T05:49:53.943Z,10.70
2024-01-30T05:52:24.257Z,9.00
2024-01-30T05:54:56.816Z,11.50
2024-01-30T05:57:29.692Z,10.20
2024-01-30T06:00:00.039Z,9.37
2024-01-30T06:02:30.331Z,9.43
2024-01-30T06:05:00.716Z,10.70
2024-01-30T06:07:34.341Z,10.30
2024-01-30T06:10:08.275Z,11.57
2024-01-30T06:12:42.087Z,9.83
2024-01-30T06:15:14.029Z,10.67
2024-01-30T06:17:44.639Z,10.77
2024-01-30T06:20:15.084Z,11.33
2024-01-30T06:22:54.384Z,9.80
2024-01-30T06:25:26.999Z,10.07
2024-01-30T06:28:02.399Z,9.17
2024-01-30T06:30:32.633Z,11.47
2024-01-30T06:33:02.991Z,9.83
2024-01-30T06:35:33.294Z,10.37
2024-01-30T06:38:03.529Z,11.63
2024-01-30T06:40:33.758Z,11.57
2024-01-30T06:43:07.222Z,10.83
2024-01-30T06:45:44.799Z,10.33
2024-01-30T06:48:15.124Z,12.50
2024-01-30T06:50:45.678Z,11.90
2024-01-30T06:53:15.942Z,9.90
2024-01-30T06:55:46.197Z,11.00
2024-01-30T06:58:19.232Z,10.00
2024-01-30T07:00:52.337Z,13.83
2024-01-30T07:03:23.085Z,10.90
2024-01-30T07:05:53.373Z,10.13
2024-01-30T07:08:23.702Z,10.80
2024-01-30T07:10:59.883Z,9.30
2024-01-30T07:13:38.037Z,12.60
2024-01-30T07:16:09.166Z,11.03
2024-01-30T07:18:46.922Z,9.53
2024-01-30T07:21:17.245Z,9.60
2024-01-30T07:23:47.522Z,9.87
2024-01-30T07:26:20.548Z,10.73
2024-01-30T07:28:59.107Z,10.60
2024-01-30T07:31:32.342Z,11.37
2024-01-30T07:34:04.760Z,10.47
2024-01-30T07:36:35.073Z,11.67
2024-01-30T07:39:05.388Z,10.80
2024-01-30T07:41:35.620Z,11.13
2024-01-30T07:44:11.573Z,10.67
2024-01-30T07:46:41.861Z,9.70
2024-01-30T07:49:12.295Z,11.37
2024-01-30T07:51:42.676Z,9.83
2024-01-30T07:54:15.719Z,10.23
2024-01-30T07:56:45.990Z,9.70
2024-01-30T07:59:20.765Z,9.73
2024-01-30T08:02:06.399Z,11.80
2024-01-30T08:04:36.790Z,10.13
2024-01-30T08:07:07.755Z,10.23
2024-01-30T08:09:38.144Z,10.87
2024-01-30T08:12:09.461Z,9.60
2024-01-30T08:14:42.577Z,9.63
2024-01-30T08:17:18.351Z,9.70
2024-01-30T08:19:48.760Z,8.38
2024-01-30T08:22:19.224Z,11.38
2024-01-30T08:24:49.616Z,8.52
2024-01-30T08:27:20.409Z,10.32
2024-01-30T08:29:53.580Z,14.43
2024-01-30T08:32:23.858Z,18.90
2024-01-30T08:34:54.295Z,15.73
2024-01-30T08:37:30.002Z,12.85
2024-01-30T08:40:00.774Z,12.88
2024-01-30T08:42:31.268Z,10.75
2024-01-30T08:45:06.061Z,17.42
2024-01-30T08:47:37.049Z,16.10
2024-01-30T08:50:11.914Z,17.05
2024-01-30T08:52:42.285Z,12.23
2024-01-30T08:55:24.673Z,12.00
2024-01-30T08:57:55.670Z,8.90
2024-01-30T09:00:28.531Z,9.90
2024-01-30T09:03:01.984Z,7.90
2024-01-30T09:05:32.346Z,10.77
2024-01-30T09:08:02.832Z,8.38
2024-01-30T09:10:33.261Z,9.52
2024-01-30T09:13:03.584Z,6.90
2024-01-30T09:15:36.946Z,10.30
2024-01-30T09:18:10.119Z,12.70
2024-01-30T09:20:40.423Z,10.93
2024-01-30T09:23:10.627Z,9.85
2024-01-30T09:25:43.943Z,8.05
2024-01-30T09:28:14.318Z,9.02
2024-01-30T09:30:47.523Z,9.52
2024-01-30T09:33:23.992Z,6.10
2024-01-30T09:35:56.745Z,8.82
2024-01-30T09:38:27.002Z,7.97
2024-01-30T09:41:07.318Z,7.18
2024-01-30T09:43:38.797Z,7.60
2024-01-30T09:46:18.586Z,10.43
2024-01-30T09:48:51.667Z,8.98
2024-01-30T09:51:26.648Z,8.00
2024-01-30T09:53:59.066Z,9.48
2024-01-30T09:56:29.594Z,10.88
2024-01-30T09:59:02.958Z,9.98
2024-01-30T10:01:42.896Z,7.40
2024-01-30T10:04:13.763Z,10.43
2024-01-30T10:06:45.840Z,7.85
2024-01-30T10:09:16.974Z,7.00
2024-01-30T10:11:47.208Z,10.10
2024-01-30T10:14:22.905Z,9.80
2024-01-30T10:16:56.137Z,9.00
2024-01-30T10:19:26.475Z,8.45
2024-01-30T10:21:59.497Z,8.95
2024-01-30T10:24:30.636Z,9.23
2024-01-30T10:27:01.185Z,8.02
2024-01-30T10:29:32.960Z,8.43
2024-01-30T10:32:10.395Z,7.68
2024-01-30T10:34:40.752Z,10.27
2024-01-30T10:37:17.077Z,8.07
2024-01-30T10:39:52.148Z,7.20
2024-01-30T10:42:30.510Z,11.77
2024-01-30T10:45:11.031Z,9.02
2024-01-30T10:47:47.468Z,7.95
2024-01-30T10:50:18.734Z,8.77
2024-01-30T10:52:58.706Z,8.25
2024-01-30T10:55:32.691Z,7.78
2024-01-30T10:58:03.850Z,11.55
2024-01-30T11:00:36.764Z,8.60
2024-01-30T11:03:20.563Z,7.00
2024-01-30T11:05:57.344Z,8.80
2024-01-30T11:08:30.024Z,6.93
2024-01-30T11:11:01.749Z,8.10
2024-01-30T11:13:36.595Z,6.88
2024-01-30T11:16:08.011Z,9.23
2024-01-30T11:18:40.912Z,8.10
2024-01-30T11:21:11.225Z,12.55
2024-01-30T11:23:43.917Z,12.02
2024-01-30T11:26:15.442Z,8.43
2024-01-30T11:31:48.686Z,8.27
2024-01-30T11:34:23.169Z,11.05
2024-01-30T11:37:02.460Z,6.72
2024-01-30T11:39:34.286Z,6.72
2024-01-30T11:42:06.154Z,7.63
2024-01-30T11:44:36.485Z,6.97
2024-01-30T11:47:07.683Z,7.80
2024-01-30T11:49:40.725Z,9.32
2024-01-30T11:52:14.544Z,7.20
2024-01-30T11:54:47.999Z,6.53
2024-01-30T11:57:18.289Z,6.70
2024-01-30T11:59:48.561Z,11.13
2024-01-30T12:02:21.837Z,8.50
2024-01-30T12:04:54.821Z,10.32
2024-01-30T12:07:27.993Z,8.48
2024-01-30T12:10:01.134Z,8.63
2024-01-30T12:12:33.041Z,9.63
2024-01-30T12:15:14.257Z,12.80
2024-01-30T12:17:44.809Z,13.60
2024-01-30T12:20:23.527Z,13.73
2024-01-30T12:22:56.161Z,10.15
2024-01-30T12:25:26.580Z,6.20
2024-01-30T12:27:57.398Z,6.78
2024-01-30T12:30:30.375Z,6.75
2024-01-30T12:33:00.744Z,7.47
2024-01-30T12:35:34.246Z,7.53
2024-01-30T12:38:11.012Z,8.20
2024-01-30T12:40:42.240Z,8.55
2024-01-30T12:43:24.675Z,6.82
2024-01-30T12:46:05.351Z,9.45
2024-01-30T12:48:35.836Z,8.10
2024-01-30T12:51:11.908Z,8.23
2024-01-30T12:53:42.459Z,8.63
2024-01-30T12:56:12.815Z,9.60
2024-01-30T12:58:46.566Z,9.50
2024-01-30T13:01:34.097Z,8.40
2024-01-30T13:04:19.669Z,6.47
2024-01-30T13:06:52.848Z,8.52
2024-01-30T13:09:23.187Z,5.93
2024-01-30T13:11:53.986Z,9.60
2024-01-30T13:14:27.612Z,10.65
2024-01-30T13:17:00.197Z,9.13
2024-01-30T13:19:30.894Z,7.07
2024-01-30T13:22:06.387Z,7.90
2024-01-30T13:24:36.773Z,9.75
2024-01-30T13:27:08.145Z,8.90
2024-01-30T13:29:38.587Z,8.55
2024-01-30T13:32:09.803Z,7.95
2024-01-30T13:34:41.633Z,10.95
2024-01-30T13:37:14.827Z,7.38
2024-01-30T13:39:45.144Z,8.02
2024-01-30T13:42:15.512Z,8.80
2024-01-30T13:44:54.294Z,10.35
2024-01-30T13:47:32.653Z,6.78
2024-01-30T13:50:04.464Z,8.50
2024-01-30T13:52:43.892Z,8.60
2024-01-30T13:55:18.649Z,7.22
2024-01-30T13:57:54.199Z,9.32
2024-01-30T14:00:27.526Z,8.52
2024-01-30T14:02:59.659Z,7.85
2024-01-30T14:05:31.438Z,12.13
2024-01-30T14:08:11.289Z,10.38
2024-01-30T14:10:41.896Z,10.52
2024-01-30T14:13:21.217Z,5.82
2024-01-30T14:15:51.597Z,6.40
2024-01-30T14:18:21.974Z,8.15
2024-01-30T14:20:52.544Z,8.30
2024-01-30T14:23:36.064Z,6.15
2024-01-30T14:26:07.356Z,8.52
2024-01-30T14:28:37.789Z,11.25
2024-01-30T14:31:08.568Z,8.13
2024-01-30T14:33:41.455Z,8.57
2024-01-30T14:36:21.718Z,6.93
2024-01-30T14:38:54.862Z,6.22
2024-01-30T14:41:27.892Z,7.05
2024-01-30T14:44:00.369Z,7.70
2024-01-30T14:46:30.895Z,6.78
2024-01-30T14:49:07.944Z,7.95
2024-01-30T14:51:40.886Z,9.10
2024-01-30T14:54:13.959Z,7.30
2024-01-30T14:56:44.465Z,8.55
2024-01-30T14:59:14.938Z,6.45
2024-01-30T15:01:46.532Z,7.10
2024-01-30T15:04:17.137Z,9.35
2024-01-30T15:06:49.569Z,8.43
2024-01-30T15:09:25.454Z,9.55
2024-01-30T15:11:57.205Z,8.50
2024-01-30T15:14:28.223Z,6.25
2024-01-30T15:16:58.660Z,7.38
2024-01-30T15:19:29.269Z,8.88
2024-01-30T15:21:59.657Z,6.47
2024-01-30T15:24:33.231Z,10.95
2024-01-30T15:27:03.584Z,7.18
2024-01-30T15:29:34.310Z,10.70
2024-01-30T15:32:10.788Z,7.82
2024-01-30T15:34:44.214Z,7.97
2024-01-30T15:37:19.754Z,5.93
2024-01-30T15:39:52.684Z,6.85
2024-01-30T15:42:25.272Z,10.10
2024-01-30T15:44:55.756Z,8.93
2024-01-30T15:47:26.065Z,9.13
2024-01-30T15:49:56.441Z,7.80
2024-01-30T15:52:26.830Z,10.10
2024-01-30T15:55:03.423Z,8.50
2024-01-30T15:57:36.877Z,7.65
2024-01-30T16:00:08.767Z,12.40
2024-01-30T16:02:39.312Z,14.30
2024-01-30T16:05:12.638Z,8.23
2024-01-30T16:07:43.297Z,6.40
2024-01-30T16:10:17.774Z,9.25
2024-01-30T16:12:56.229Z,8.18
2024-01-30T16:15:26.750Z,8.55
2024-01-30T16:17:57.178Z,9.35
2024-01-30T16:20:37.877Z,7.47
2024-01-30T16:23:08.576Z,9.27
2024-01-30T16:25:41.637Z,8.90
2024-01-30T16:28:11.997Z,9.90
2024-01-30T16:30:42.380Z,9.25
2024-01-30T16:33:20.462Z,9.95
2024-01-30T16:36:06.952Z,13.13
2024-01-30T16:38:37.274Z,9.57
2024-01-30T16:41:10.275Z,12.80
2024-01-30T16:43:40.555Z,14.63
2024-01-30T16:46:11.347Z,13.88
2024-01-30T16:48:47.796Z,12.15
2024-01-30T16:51:18.151Z,16.23
2024-01-30T16:53:51.516Z,10.80
2024-01-30T16:56:29.498Z,10.48
2024-01-30T16:58:59.858Z,12.32
2024-01-30T17:01:30.287Z,13.02
2024-01-30T17:04:00.654Z,11.38
2024-01-30T17:06:39.736Z,13.52
2024-01-30T17:09:14.013Z,8.13
2024-01-30T17:11:46.956Z,9.13
2024-01-30T17:14:19.761Z,9.02
2024-01-30T17:17:00.122Z,9.40
2024-01-30T17:19:36.029Z,8.57
2024-01-30T17:22:07.673Z,6.72
2024-01-30T17:24:46.633Z,8.15
2024-01-30T17:27:46.049Z,5.90
2024-01-30T17:30:18.426Z,6.07
2024-01-30T17:32:48.717Z,5.80
2024-01-30T17:35:21.713Z,6.05
2024-01-30T17:37:54.668Z,7.10
2024-01-30T17:40:28.101Z,5.93
2024-01-30T17:43:01.105Z,4.80
2024-01-30T17:45:38.731Z,4.13
2024-01-30T17:48:14.541Z,5.28
2024-01-30T17:50:46.688Z,6.65
2024-01-30T17:53:19.918Z,6.93
2024-01-30T17:55:53.402Z,5.03
2024-01-30T17:58:26.840Z,4.00
2024-01-30T18:00:59.072Z,3.78
2024-01-30T18:03:29.444Z,4.93
2024-01-30T18:06:01.112Z,4.57
2024-01-30T18:08:36.776Z,4.35
2024-01-30T18:11:07.467Z,4.80
2024-01-30T18:13:40.483Z,5.25
2024-01-30T18:16:10.932Z,4.47
2024-01-30T18:18:44.908Z,3.83
2024-01-30T18:21:16.434Z,3.65
2024-01-30T18:23:46.765Z,3.85
2024-01-30T18:26:17.767Z,2.95
2024-01-30T18:29:05.807Z,3.13
2024-01-30T18:31:36.343Z,3.92
2024-01-30T18:34:06.853Z,4.93
2024-01-30T18:36:38.148Z,4.75
2024-01-30T18:39:11.795Z,6.47
2024-01-30T18:41:42.198Z,5.78
2024-01-30T18:44:15.804Z,4.30
2024-01-30T18:46:46.124Z,3.20
2024-01-30T18:49:19.385Z,5.20
2024-01-30T18:51:53.918Z,3.10
2024-01-30T18:54:26.505Z,3.53
2024-01-30T18:56:57.134Z,5.40
2024-01-30T18:59:30.095Z,2.47
2024-01-30T19:02:00.502Z,5.50
2024-01-30T19:04:36.218Z,3.10
2024-01-30T19:07:06.779Z,4.25
2024-01-30T19:09:38.906Z,4.15
2024-01-30T19:12:10.587Z,4.57
2024-01-30T19:14:46.118Z,3.20
2024-01-30T19:17:32.510Z,4.13
2024-01-30T19:20:03.947Z,5.20
2024-01-30T19:22:46.605Z,5.35
2024-01-30T19:25:20.583Z,7.43
2024-01-30T19:28:00.326Z,6.80
2024-01-30T19:30:33.991Z,5.45
2024-01-30T19:33:08.772Z,6.35
2024-01-30T19:35:39.178Z,7.50
2024-01-30T19:38:25.959Z,6.85
2024-01-30T19:40:58.448Z,6.43
2024-01-30T19:43:29.607Z,9.00
2024-01-30T19:46:07.045Z,9.10
2024-01-30T19:48:40.808Z,7.18
2024-01-30T19:51:12.864Z,7.82
2024-01-30T19:53:46.830Z,5.93
2024-01-30T19:56:18.426Z,4.78
2024-01-30T19:58:51.289Z,5.50
2024-01-30T20:01:42.216Z,3.65
2024-01-30T20:04:14.447Z,4.20
2024-01-30T20:06:51.066Z,4.80
2024-01-30T20:09:23.675Z,5.90
2024-01-30T20:12:01.902Z,4.07
2024-01-30T20:14:33.204Z,3.95
2024-01-30T20:17:06.185Z,5.45
2024-01-30T20:19:40.076Z,4.35
2024-01-30T20:22:13.906Z,10.57
2024-01-30T20:24:48.957Z,3.47
2024-01-30T20:27:23.631Z,3.97
2024-01-30T20:29:53.850Z,3.28
2024-01-30T20:32:29.999Z,4.68
2024-01-30T20:35:03.509Z,4.72
2024-01-30T20:37:34.095Z,5.28
2024-01-30T20:40:09.141Z,5.18
2024-01-30T20:42:39.493Z,4.90
2024-01-30T20:45:12.018Z,5.40
2024-01-30T20:47:44.993Z,3.90
2024-01-30T20:50:27.669Z,4.75
2024-01-30T20:52:57.973Z,3.88
2024-01-30T20:55:31.092Z,3.88
2024-01-30T20:58:01.446Z,3.75
2024-01-30T21:00:31.736Z,3.83
2024-01-30T21:03:04.574Z,6.35
2024-01-30T21:05:34.941Z,5.00
2024-01-30T21:08:05.389Z,5.20
2024-01-30T21:10:39.141Z,7.57
2024-01-30T21:13:09.455Z,7.60
2024-01-30T21:15:39.721Z,3.95
2024-01-30T21:18:15.789Z,4.93
2024-01-30T21:20:48.957Z,3.50
2024-01-30T21:23:24.329Z,2.85
2024-01-30T21:25:59.254Z,4.22
2024-01-30T21:28:29.630Z,3.97
2024-01-30T21:30:59.980Z,2.78
2024-01-30T21:33:32.894Z,3.55
2024-01-30T21:36:03.257Z,4.65
2024-01-30T21:38:38.971Z,4.28
2024-01-30T21:41:12.063Z,4.47
2024-01-30T21:43:42.369Z,4.20
2024-01-30T21:46:16.470Z,3.15
2024-01-30T21:48:51.758Z,4.78
2024-01-30T21:51:22.273Z,5.43
2024-01-30T21:53:52.613Z,3.53
2024-01-30T21:56:22.899Z,4.37
2024-01-30T21:58:54.132Z,5.13
2024-01-30T22:01:25.046Z,3.93
2024-01-30T22:03:58.146Z,3.80
2024-01-30T22:06:28.661Z,4.32
2024-01-30T22:08:58.894Z,5.07
2024-01-30T22:11:26.613Z,4.10
2024-01-30T22:13:56.900Z,5.40
2024-01-30T22:16:27.222Z,3.47
2024-01-30T22:19:00.243Z,5.28
2024-01-30T22:21:30.658Z,6.97
2024-01-30T22:24:00.909Z,5.00
2024-01-30T22:26:31.238Z,7.20
2024-01-30T22:29:01.517Z,4.47
2024-01-30T22:31:31.849Z,4.87
2024-01-30T22:34:04.807Z,4.53
2024-01-30T22:36:35.954Z,4.47
2024-01-30T22:39:10.187Z,4.35
2024-01-30T22:41:41.491Z,3.42
2024-01-30T22:44:13.637Z,3.33
2024-01-30T22:46:45.197Z,5.57
2024-01-30T22:49:19.713Z,5.47
2024-01-30T22:51:50.338Z,4.30
2024-01-30T22:54:21.035Z,4.00
2024-01-30T22:56:54.521Z,4.38
2024-01-30T22:59:25.025Z,3.97
2024-01-30T23:01:55.328Z,5.70
2024-01-30T23:04:28.277Z,5.67
2024-01-30T23:06:58.667Z,4.37
2024-01-30T23:09:35.091Z,5.33
2024-01-30T23:12:05.453Z,7.17
2024-01-30T23:14:35.698Z,4.47
2024-01-30T23:17:18.227Z,6.67
2024-01-30T23:19:51.153Z,5.80
2024-01-30T23:22:23.966Z,5.67
2024-01-30T23:24:54.282Z,5.38
2024-01-30T23:27:26.993Z,7.33
2024-01-30T23:29:57.332Z,4.82
2024-01-30T23:32:34.773Z,7.73
2024-01-30T23:35:15.085Z,6.07
2024-01-30T23:37:45.493Z,6.10
2024-01-30T23:40:18.829Z,6.72
2024-01-30T23:42:51.375Z,5.88
2024-01-30T23:45:21.733Z,4.90
2024-01-30T23:47:55.130Z,8.70
2024-01-30T23:50:31.124Z,6.93
2024-01-30T23:53:01.380Z,9.23
2024-01-30T23:55:31.738Z,5.00
2024-01-30T23:58:02.168Z,8.63
